sensor_id;sensor_type;location;lat;lon;timestamp;P1;durP1;ratioP1;P2;durP2;ratioP2
19927;SDS011;10126;50.876;4.470;2022-07-29T00:00:33;0.10;;;0.10;;
19927;SDS011;10126;50.876;4.470;2022-07-29T00:02:33;0.10;;;0.10;;
19927;SDS011;10126;50.876;4.470;2022-07-29T00:04:34;0.10;;;0.10;;
19927;SDS011;10126;50.876;4.470;2022-07-29T00:06:35;0.10;;;0.10;;
19927;SDS011;10126;50.876;4.470;2022-07-29T00:08:36;0.17;;;0.17;;
19927;SDS011;10126;50.876;4.470;2022-07-29T00:10:37;0.10;;;0.10;;
19927;SDS011;10126;50.876;4.470;2022-07-29T00:12:37;0.10;;;0.10;;
19927;SDS011;10126;50.876;4.470;2022-07-29T00:14:38;0.10;;;0.10;;
19927;SDS011;10126;50.876;4.470;2022-07-29T00:16:38;0.10;;;0.10;;
19927;SDS011;10126;50.876;4.470;2022-07-29T00:18:40;0.10;;;0.10;;
19927;SDS011;10126;50.876;4.470;2022-07-29T00:20:40;0.50;;;0.20;;
19927;SDS011;10126;50.876;4.470;2022-07-29T00:22:41;0.17;;;0.17;;
19927;SDS011;10126;50.876;4.470;2022-07-29T00:24:41;0.10;;;0.10;;
19927;SDS011;10126;50.876;4.470;2022-07-29T00:26:42;0.10;;;0.10;;
19927;SDS011;10126;50.876;4.470;2022-07-29T00:28:42;0.10;;;0.10;;
19927;SDS011;10126;50.876;4.470;2022-07-29T00:30:43;0.10;;;0.10;;
19927;SDS011;10126;50.876;4.470;2022-07-29T00:32:44;0.10;;;0.10;;
19927;SDS011;10126;50.876;4.470;2022-07-29T00:34:44;0.10;;;0.10;;
19927;SDS011;10126;50.876;4.470;2022-07-29T00:37:17;0.10;;;0.10;;
19927;SDS011;10126;50.876;4.470;2022-07-29T00:39:18;0.10;;;0.10;;
19927;SDS011;10126;50.876;4.470;2022-07-29T00:41:18;0.17;;;0.17;;
19927;SDS011;10126;50.876;4.470;2022-07-29T00:43:19;0.10;;;0.10;;
19927;SDS011;10126;50.876;4.470;2022-07-29T00:45:20;0.10;;;0.10;;
19927;SDS011;10126;50.876;4.470;2022-07-29T00:47:22;0.10;;;0.10;;
19927;SDS011;10126;50.876;4.470;2022-07-29T00:49:22;0.13;;;0.13;;
19927;SDS011;10126;50.876;4.470;2022-07-29T00:51:23;0.10;;;0.10;;
19927;SDS011;10126;50.876;4.470;2022-07-29T00:53:27;0.10;;;0.10;;
19927;SDS011;10126;50.876;4.470;2022-07-29T00:55:27;0.10;;;0.10;;
19927;SDS011;10126;50.876;4.470;2022-07-29T00:57:29;0.10;;;0.10;;
19927;SDS011;10126;50.876;4.470;2022-07-29T00:59:30;0.10;;;0.10;;
19927;SDS011;10126;50.876;4.470;2022-07-29T01:01:31;0.20;;;0.20;;
19927;SDS011;10126;50.876;4.470;2022-07-29T01:03:32;0.20;;;0.20;;
19927;SDS011;10126;50.876;4.470;2022-07-29T01:05:33;0.10;;;0.10;;
19927;SDS011;10126;50.876;4.470;2022-07-29T01:07:36;0.20;;;0.20;;
19927;SDS011;10126;50.876;4.470;2022-07-29T01:09:38;0.10;;;0.10;;
19927;SDS011;10126;50.876;4.470;2022-07-29T01:11:40;0.20;;;0.20;;
19927;SDS011;10126;50.876;4.470;2022-07-29T01:13:43;0.20;;;0.20;;
19927;SDS011;10126;50.876;4.470;2022-07-29T01:15:47;0.10;;;0.10;;
19927;SDS011;10126;50.876;4.470;2022-07-29T01:18:03;0.20;;;0.20;;
19927;SDS011;10126;50.876;4.470;2022-07-29T01:29:41;0.20;;;0.20;;
19927;SDS011;10126;50.876;4.470;2022-07-29T01:31:56;0.10;;;0.10;;
19927;SDS011;10126;50.876;4.470;2022-07-29T01:34:20;0.17;;;0.17;;
19927;SDS011;10126;50.876;4.470;2022-07-29T01:36:26;0.10;;;0.10;;
19927;SDS011;10126;50.876;4.470;2022-07-29T01:38:32;0.10;;;0.10;;
19927;SDS011;10126;50.876;4.470;2022-07-29T01:42:43;0.10;;;0.10;;
19927;SDS011;10126;50.876;4.470;2022-07-29T01:46:57;0.17;;;0.17;;
19927;SDS011;10126;50.876;4.470;2022-07-29T01:49:08;0.10;;;0.10;;
19927;SDS011;10126;50.876;4.470;2022-07-29T01:51:19;0.10;;;0.10;;
19927;SDS011;10126;50.876;4.470;2022-07-29T01:53:26;0.10;;;0.10;;
19927;SDS011;10126;50.876;4.470;2022-07-29T01:55:35;0.10;;;0.10;;
19927;SDS011;10126;50.876;4.470;2022-07-29T01:57:40;0.20;;;0.20;;
19927;SDS011;10126;50.876;4.470;2022-07-29T01:59:44;0.20;;;0.20;;
19927;SDS011;10126;50.876;4.470;2022-07-29T02:01:47;0.20;;;0.20;;
19927;SDS011;10126;50.876;4.470;2022-07-29T02:03:50;0.13;;;0.13;;
19927;SDS011;10126;50.876;4.470;2022-07-29T02:05:52;0.10;;;0.10;;
19927;SDS011;10126;50.876;4.470;2022-07-29T02:07:55;0.10;;;0.10;;
19927;SDS011;10126;50.876;4.470;2022-07-29T02:09:58;0.10;;;0.10;;
19927;SDS011;10126;50.876;4.470;2022-07-29T02:12:02;0.10;;;0.10;;
19927;SDS011;10126;50.876;4.470;2022-07-29T02:14:04;0.10;;;0.10;;
19927;SDS011;10126;50.876;4.470;2022-07-29T02:16:06;0.17;;;0.17;;
19927;SDS011;10126;50.876;4.470;2022-07-29T02:18:09;0.10;;;0.10;;
19927;SDS011;10126;50.876;4.470;2022-07-29T02:20:14;0.10;;;0.10;;
19927;SDS011;10126;50.876;4.470;2022-07-29T02:22:16;0.10;;;0.10;;
19927;SDS011;10126;50.876;4.470;2022-07-29T02:24:19;0.20;;;0.20;;
19927;SDS011;10126;50.876;4.470;2022-07-29T02:26:23;0.70;;;0.20;;
19927;SDS011;10126;50.876;4.470;2022-07-29T02:28:26;0.20;;;0.20;;
19927;SDS011;10126;50.876;4.470;2022-07-29T02:30:29;0.20;;;0.20;;
19927;SDS011;10126;50.876;4.470;2022-07-29T02:32:31;0.20;;;0.20;;
19927;SDS011;10126;50.876;4.470;2022-07-29T02:34:35;0.20;;;0.20;;
19927;SDS011;10126;50.876;4.470;2022-07-29T02:36:38;0.20;;;0.20;;
19927;SDS011;10126;50.876;4.470;2022-07-29T02:38:40;0.10;;;0.10;;
19927;SDS011;10126;50.876;4.470;2022-07-29T02:40:51;0.20;;;0.20;;
19927;SDS011;10126;50.876;4.470;2022-07-29T02:42:53;0.20;;;0.20;;
19927;SDS011;10126;50.876;4.470;2022-07-29T02:44:54;0.10;;;0.10;;
19927;SDS011;10126;50.876;4.470;2022-07-29T02:49:16;0.10;;;0.10;;
19927;SDS011;10126;50.876;4.470;2022-07-29T02:51:19;0.10;;;0.10;;
19927;SDS011;10126;50.876;4.470;2022-07-29T02:53:27;0.13;;;0.13;;
19927;SDS011;10126;50.876;4.470;2022-07-29T02:57:54;0.20;;;0.20;;
19927;SDS011;10126;50.876;4.470;2022-07-29T03:00:04;0.20;;;0.20;;
19927;SDS011;10126;50.876;4.470;2022-07-29T03:02:07;0.10;;;0.10;;
19927;SDS011;10126;50.876;4.470;2022-07-29T03:04:11;0.20;;;0.20;;
19927;SDS011;10126;50.876;4.470;2022-07-29T03:06:13;0.20;;;0.20;;
19927;SDS011;10126;50.876;4.470;2022-07-29T03:08:15;0.20;;;0.20;;
19927;SDS011;10126;50.876;4.470;2022-07-29T03:10:16;0.17;;;0.17;;
19927;SDS011;10126;50.876;4.470;2022-07-29T03:12:18;0.20;;;0.20;;
19927;SDS011;10126;50.876;4.470;2022-07-29T03:14:19;0.20;;;0.20;;
19927;SDS011;10126;50.876;4.470;2022-07-29T03:16:22;0.10;;;0.10;;
19927;SDS011;10126;50.876;4.470;2022-07-29T03:18:24;0.20;;;0.20;;
19927;SDS011;10126;50.876;4.470;2022-07-29T03:20:25;0.20;;;0.20;;
19927;SDS011;10126;50.876;4.470;2022-07-29T03:22:26;0.20;;;0.20;;
19927;SDS011;10126;50.876;4.470;2022-07-29T03:24:29;0.20;;;0.20;;
19927;SDS011;10126;50.876;4.470;2022-07-29T03:26:31;0.10;;;0.10;;
19927;SDS011;10126;50.876;4.470;2022-07-29T03:28:32;0.10;;;0.10;;
19927;SDS011;10126;50.876;4.470;2022-07-29T03:30:32;0.20;;;0.20;;
19927;SDS011;10126;50.876;4.470;2022-07-29T03:32:33;0.20;;;0.20;;
19927;SDS011;10126;50.876;4.470;2022-07-29T03:34:34;0.10;;;0.10;;
19927;SDS011;10126;50.876;4.470;2022-07-29T03:36:36;0.13;;;0.13;;
19927;SDS011;10126;50.876;4.470;2022-07-29T03:38:37;0.10;;;0.10;;
19927;SDS011;10126;50.876;4.470;2022-07-29T03:40:41;0.10;;;0.10;;
19927;SDS011;10126;50.876;4.470;2022-07-29T03:43:02;0.20;;;0.20;;
19927;SDS011;10126;50.876;4.470;2022-07-29T03:45:05;0.10;;;0.10;;
19927;SDS011;10126;50.876;4.470;2022-07-29T03:47:08;0.10;;;0.10;;
19927;SDS011;10126;50.876;4.470;2022-07-29T03:49:10;0.10;;;0.10;;
19927;SDS011;10126;50.876;4.470;2022-07-29T03:51:13;0.10;;;0.10;;
19927;SDS011;10126;50.876;4.470;2022-07-29T03:53:14;0.20;;;0.20;;
19927;SDS011;10126;50.876;4.470;2022-07-29T03:55:16;0.10;;;0.10;;
19927;SDS011;10126;50.876;4.470;2022-07-29T03:57:17;0.10;;;0.10;;
19927;SDS011;10126;50.876;4.470;2022-07-29T03:59:20;0.20;;;0.20;;
19927;SDS011;10126;50.876;4.470;2022-07-29T04:01:22;0.10;;;0.10;;
19927;SDS011;10126;50.876;4.470;2022-07-29T04:03:23;0.10;;;0.10;;
19927;SDS011;10126;50.876;4.470;2022-07-29T04:05:24;0.20;;;0.20;;
19927;SDS011;10126;50.876;4.470;2022-07-29T04:07:25;0.10;;;0.10;;
19927;SDS011;10126;50.876;4.470;2022-07-29T04:09:25;0.20;;;0.20;;
19927;SDS011;10126;50.876;4.470;2022-07-29T04:11:26;0.10;;;0.10;;
19927;SDS011;10126;50.876;4.470;2022-07-29T04:13:27;0.10;;;0.10;;
19927;SDS011;10126;50.876;4.470;2022-07-29T04:15:28;0.20;;;0.20;;
19927;SDS011;10126;50.876;4.470;2022-07-29T04:17:29;0.20;;;0.20;;
19927;SDS011;10126;50.876;4.470;2022-07-29T04:19:29;0.20;;;0.20;;
19927;SDS011;10126;50.876;4.470;2022-07-29T04:21:30;0.20;;;0.20;;
19927;SDS011;10126;50.876;4.470;2022-07-29T04:23:36;0.10;;;0.10;;
19927;SDS011;10126;50.876;4.470;2022-07-29T04:25:37;0.23;;;0.23;;
19927;SDS011;10126;50.876;4.470;2022-07-29T04:27:39;0.20;;;0.20;;
19927;SDS011;10126;50.876;4.470;2022-07-29T04:29:59;0.20;;;0.20;;
19927;SDS011;10126;50.876;4.470;2022-07-29T04:32:00;0.13;;;0.13;;
19927;SDS011;10126;50.876;4.470;2022-07-29T04:34:00;0.10;;;0.10;;
19927;SDS011;10126;50.876;4.470;2022-07-29T04:36:01;0.10;;;0.10;;
19927;SDS011;10126;50.876;4.470;2022-07-29T04:38:02;0.10;;;0.10;;
19927;SDS011;10126;50.876;4.470;2022-07-29T04:40:03;0.20;;;0.20;;
19927;SDS011;10126;50.876;4.470;2022-07-29T04:42:04;0.10;;;0.10;;
19927;SDS011;10126;50.876;4.470;2022-07-29T04:44:05;0.10;;;0.10;;
19927;SDS011;10126;50.876;4.470;2022-07-29T04:46:06;0.10;;;0.10;;
19927;SDS011;10126;50.876;4.470;2022-07-29T04:48:06;0.10;;;0.10;;
19927;SDS011;10126;50.876;4.470;2022-07-29T04:50:08;0.10;;;0.10;;
19927;SDS011;10126;50.876;4.470;2022-07-29T04:52:09;0.20;;;0.20;;
19927;SDS011;10126;50.876;4.470;2022-07-29T04:54:10;0.10;;;0.10;;
19927;SDS011;10126;50.876;4.470;2022-07-29T04:56:10;0.10;;;0.10;;
19927;SDS011;10126;50.876;4.470;2022-07-29T04:58:11;0.10;;;0.10;;
19927;SDS011;10126;50.876;4.470;2022-07-29T05:00:12;0.10;;;0.10;;
19927;SDS011;10126;50.876;4.470;2022-07-29T05:02:13;0.20;;;0.20;;
19927;SDS011;10126;50.876;4.470;2022-07-29T05:04:13;0.10;;;0.10;;
19927;SDS011;10126;50.876;4.470;2022-07-29T05:06:14;0.20;;;0.20;;
19927;SDS011;10126;50.876;4.470;2022-07-29T05:08:15;0.10;;;0.10;;
19927;SDS011;10126;50.876;4.470;2022-07-29T05:10:16;0.10;;;0.10;;
19927;SDS011;10126;50.876;4.470;2022-07-29T05:12:16;0.10;;;0.10;;
19927;SDS011;10126;50.876;4.470;2022-07-29T05:14:17;0.07;;;0.07;;
19927;SDS011;10126;50.876;4.470;2022-07-29T05:16:18;0.03;;;0.03;;
19927;SDS011;10126;50.876;4.470;2022-07-29T05:18:18;0.10;;;0.10;;
19927;SDS011;10126;50.876;4.470;2022-07-29T05:20:19;0.17;;;0.17;;
19927;SDS011;10126;50.876;4.470;2022-07-29T05:22:25;0.10;;;0.10;;
19927;SDS011;10126;50.876;4.470;2022-07-29T05:24:26;0.10;;;0.10;;
19927;SDS011;10126;50.876;4.470;2022-07-29T05:26:27;0.10;;;0.10;;
19927;SDS011;10126;50.876;4.470;2022-07-29T05:28:28;0.10;;;0.10;;
19927;SDS011;10126;50.876;4.470;2022-07-29T05:30:29;0.10;;;0.10;;
19927;SDS011;10126;50.876;4.470;2022-07-29T05:32:29;0.10;;;0.10;;
19927;SDS011;10126;50.876;4.470;2022-07-29T05:34:30;0.10;;;0.10;;
19927;SDS011;10126;50.876;4.470;2022-07-29T05:36:31;0.00;;;0.00;;
19927;SDS011;10126;50.876;4.470;2022-07-29T05:38:32;0.10;;;0.10;;
19927;SDS011;10126;50.876;4.470;2022-07-29T05:40:33;0.00;;;0.00;;
19927;SDS011;10126;50.876;4.470;2022-07-29T05:42:34;0.00;;;0.00;;
19927;SDS011;10126;50.876;4.470;2022-07-29T05:44:36;0.00;;;0.00;;
19927;SDS011;10126;50.876;4.470;2022-07-29T05:46:37;0.00;;;0.00;;
19927;SDS011;10126;50.876;4.470;2022-07-29T05:48:38;0.00;;;0.00;;
19927;SDS011;10126;50.876;4.470;2022-07-29T05:50:38;0.10;;;0.10;;
19927;SDS011;10126;50.876;4.470;2022-07-29T05:52:39;0.00;;;0.00;;
19927;SDS011;10126;50.876;4.470;2022-07-29T05:54:43;0.00;;;0.00;;
19927;SDS011;10126;50.876;4.470;2022-07-29T05:56:43;0.00;;;0.00;;
19927;SDS011;10126;50.876;4.470;2022-07-29T05:58:44;0.00;;;0.00;;
19927;SDS011;10126;50.876;4.470;2022-07-29T06:00:45;0.10;;;0.10;;
19927;SDS011;10126;50.876;4.470;2022-07-29T06:02:46;0.10;;;0.10;;
19927;SDS011;10126;50.876;4.470;2022-07-29T06:04:47;0.10;;;0.10;;
19927;SDS011;10126;50.876;4.470;2022-07-29T06:06:48;0.10;;;0.10;;
19927;SDS011;10126;50.876;4.470;2022-07-29T06:08:49;0.00;;;0.00;;
19927;SDS011;10126;50.876;4.470;2022-07-29T06:10:49;0.10;;;0.10;;
19927;SDS011;10126;50.876;4.470;2022-07-29T06:12:50;0.10;;;0.10;;
19927;SDS011;10126;50.876;4.470;2022-07-29T06:14:50;0.10;;;0.10;;
19927;SDS011;10126;50.876;4.470;2022-07-29T06:16:51;0.00;;;0.00;;
19927;SDS011;10126;50.876;4.470;2022-07-29T06:18:53;0.10;;;0.10;;
19927;SDS011;10126;50.876;4.470;2022-07-29T06:20:53;0.10;;;0.10;;
19927;SDS011;10126;50.876;4.470;2022-07-29T06:22:54;0.00;;;0.00;;
19927;SDS011;10126;50.876;4.470;2022-07-29T06:24:55;0.00;;;0.00;;
19927;SDS011;10126;50.876;4.470;2022-07-29T06:26:55;0.00;;;0.00;;
19927;SDS011;10126;50.876;4.470;2022-07-29T06:28:56;0.00;;;0.00;;
19927;SDS011;10126;50.876;4.470;2022-07-29T06:30:57;0.00;;;0.00;;
19927;SDS011;10126;50.876;4.470;2022-07-29T06:32:58;0.00;;;0.00;;
19927;SDS011;10126;50.876;4.470;2022-07-29T06:35:00;0.00;;;0.00;;
19927;SDS011;10126;50.876;4.470;2022-07-29T06:37:05;0.00;;;0.00;;
19927;SDS011;10126;50.876;4.470;2022-07-29T06:39:09;0.00;;;0.00;;
19927;SDS011;10126;50.876;4.470;2022-07-29T06:41:09;0.00;;;0.00;;
19927;SDS011;10126;50.876;4.470;2022-07-29T06:43:12;0.00;;;0.00;;
19927;SDS011;10126;50.876;4.470;2022-07-29T06:45:13;0.00;;;0.00;;
19927;SDS011;10126;50.876;4.470;2022-07-29T06:47:13;0.00;;;0.00;;
19927;SDS011;10126;50.876;4.470;2022-07-29T06:49:14;0.00;;;0.00;;
19927;SDS011;10126;50.876;4.470;2022-07-29T06:51:15;0.00;;;0.00;;
19927;SDS011;10126;50.876;4.470;2022-07-29T06:53:16;0.00;;;0.00;;
19927;SDS011;10126;50.876;4.470;2022-07-29T06:55:17;0.00;;;0.00;;
19927;SDS011;10126;50.876;4.470;2022-07-29T06:57:19;0.00;;;0.00;;
19927;SDS011;10126;50.876;4.470;2022-07-29T06:59:19;0.00;;;0.00;;
19927;SDS011;10126;50.876;4.470;2022-07-29T07:01:20;0.00;;;0.00;;
19927;SDS011;10126;50.876;4.470;2022-07-29T07:03:21;0.00;;;0.00;;
19927;SDS011;10126;50.876;4.470;2022-07-29T07:05:22;0.00;;;0.00;;
19927;SDS011;10126;50.876;4.470;2022-07-29T07:07:23;0.00;;;0.00;;
19927;SDS011;10126;50.876;4.470;2022-07-29T07:09:23;0.05;;;0.05;;
19927;SDS011;10126;50.876;4.470;2022-07-29T07:11:24;0.00;;;0.00;;
19927;SDS011;10126;50.876;4.470;2022-07-29T07:13:25;0.00;;;0.00;;
19927;SDS011;10126;50.876;4.470;2022-07-29T07:15:26;0.00;;;0.00;;
19927;SDS011;10126;50.876;4.470;2022-07-29T07:17:27;0.00;;;0.00;;
19927;SDS011;10126;50.876;4.470;2022-07-29T07:19:27;0.00;;;0.00;;
19927;SDS011;10126;50.876;4.470;2022-07-29T07:21:28;0.00;;;0.00;;
19927;SDS011;10126;50.876;4.470;2022-07-29T07:23:29;0.00;;;0.00;;
19927;SDS011;10126;50.876;4.470;2022-07-29T07:25:30;0.00;;;0.00;;
19927;SDS011;10126;50.876;4.470;2022-07-29T07:27:31;0.00;;;0.00;;
19927;SDS011;10126;50.876;4.470;2022-07-29T07:29:31;0.00;;;0.00;;
19927;SDS011;10126;50.876;4.470;2022-07-29T07:31:32;0.00;;;0.00;;
19927;SDS011;10126;50.876;4.470;2022-07-29T07:33:33;0.00;;;0.00;;
19927;SDS011;10126;50.876;4.470;2022-07-29T07:35:34;0.00;;;0.00;;
19927;SDS011;10126;50.876;4.470;2022-07-29T07:37:35;0.00;;;0.00;;
19927;SDS011;10126;50.876;4.470;2022-07-29T07:39:35;0.00;;;0.00;;
19927;SDS011;10126;50.876;4.470;2022-07-29T07:41:36;0.00;;;0.00;;
19927;SDS011;10126;50.876;4.470;2022-07-29T07:43:36;0.00;;;0.00;;
19927;SDS011;10126;50.876;4.470;2022-07-29T07:45:40;0.00;;;0.00;;
19927;SDS011;10126;50.876;4.470;2022-07-29T07:47:41;0.00;;;0.00;;
19927;SDS011;10126;50.876;4.470;2022-07-29T07:49:41;0.10;;;0.10;;
19927;SDS011;10126;50.876;4.470;2022-07-29T07:51:42;0.10;;;0.10;;
19927;SDS011;10126;50.876;4.470;2022-07-29T07:53:43;0.00;;;0.00;;
19927;SDS011;10126;50.876;4.470;2022-07-29T07:55:44;0.00;;;0.00;;
19927;SDS011;10126;50.876;4.470;2022-07-29T07:57:45;0.00;;;0.00;;
19927;SDS011;10126;50.876;4.470;2022-07-29T07:59:46;0.00;;;0.00;;
19927;SDS011;10126;50.876;4.470;2022-07-29T08:01:46;0.00;;;0.00;;
19927;SDS011;10126;50.876;4.470;2022-07-29T08:03:47;0.00;;;0.00;;
19927;SDS011;10126;50.876;4.470;2022-07-29T08:05:48;0.00;;;0.00;;
19927;SDS011;10126;50.876;4.470;2022-07-29T08:07:51;0.00;;;0.00;;
19927;SDS011;10126;50.876;4.470;2022-07-29T08:09:52;0.00;;;0.00;;
19927;SDS011;10126;50.876;4.470;2022-07-29T08:11:52;0.00;;;0.00;;
19927;SDS011;10126;50.876;4.470;2022-07-29T08:13:53;0.00;;;0.00;;
19927;SDS011;10126;50.876;4.470;2022-07-29T08:15:54;0.00;;;0.00;;
19927;SDS011;10126;50.876;4.470;2022-07-29T08:17:58;0.00;;;0.00;;
19927;SDS011;10126;50.876;4.470;2022-07-29T08:19:58;0.00;;;0.00;;
19927;SDS011;10126;50.876;4.470;2022-07-29T08:21:59;0.00;;;0.00;;
19927;SDS011;10126;50.876;4.470;2022-07-29T08:24:00;0.00;;;0.00;;
19927;SDS011;10126;50.876;4.470;2022-07-29T08:26:19;0.00;;;0.00;;
19927;SDS011;10126;50.876;4.470;2022-07-29T08:28:22;0.00;;;0.00;;
19927;SDS011;10126;50.876;4.470;2022-07-29T08:30:23;0.00;;;0.00;;
19927;SDS011;10126;50.876;4.470;2022-07-29T08:32:24;0.00;;;0.00;;
19927;SDS011;10126;50.876;4.470;2022-07-29T08:34:25;0.00;;;0.00;;
19927;SDS011;10126;50.876;4.470;2022-07-29T08:36:26;0.00;;;0.00;;
19927;SDS011;10126;50.876;4.470;2022-07-29T08:38:26;0.00;;;0.00;;
19927;SDS011;10126;50.876;4.470;2022-07-29T08:40:27;0.00;;;0.00;;
19927;SDS011;10126;50.876;4.470;2022-07-29T08:42:28;0.05;;;0.05;;
19927;SDS011;10126;50.876;4.470;2022-07-29T08:44:29;0.00;;;0.00;;
19927;SDS011;10126;50.876;4.470;2022-07-29T08:46:31;0.00;;;0.00;;
19927;SDS011;10126;50.876;4.470;2022-07-29T08:48:32;0.08;;;0.08;;
19927;SDS011;10126;50.876;4.470;2022-07-29T08:50:35;0.00;;;0.00;;
19927;SDS011;10126;50.876;4.470;2022-07-29T08:52:37;0.03;;;0.03;;
19927;SDS011;10126;50.876;4.470;2022-07-29T08:54:40;0.00;;;0.00;;
19927;SDS011;10126;50.876;4.470;2022-07-29T08:56:43;0.00;;;0.00;;
19927;SDS011;10126;50.876;4.470;2022-07-29T08:58:48;0.00;;;0.00;;
19927;SDS011;10126;50.876;4.470;2022-07-29T09:00:50;0.00;;;0.00;;
19927;SDS011;10126;50.876;4.470;2022-07-29T09:02:56;0.00;;;0.00;;
19927;SDS011;10126;50.876;4.470;2022-07-29T09:04:58;0.00;;;0.00;;
19927;SDS011;10126;50.876;4.470;2022-07-29T09:07:02;0.00;;;0.00;;
19927;SDS011;10126;50.876;4.470;2022-07-29T09:09:04;0.00;;;0.00;;
19927;SDS011;10126;50.876;4.470;2022-07-29T09:11:07;0.00;;;0.00;;
19927;SDS011;10126;50.876;4.470;2022-07-29T09:13:08;0.00;;;0.00;;
19927;SDS011;10126;50.876;4.470;2022-07-29T09:15:08;0.00;;;0.00;;
19927;SDS011;10126;50.876;4.470;2022-07-29T09:17:09;0.00;;;0.00;;
19927;SDS011;10126;50.876;4.470;2022-07-29T09:19:19;0.00;;;0.00;;
19927;SDS011;10126;50.876;4.470;2022-07-29T09:21:22;0.00;;;0.00;;
19927;SDS011;10126;50.876;4.470;2022-07-29T09:23:44;0.00;;;0.00;;
19927;SDS011;10126;50.876;4.470;2022-07-29T09:25:59;0.00;;;0.00;;
19927;SDS011;10126;50.876;4.470;2022-07-29T09:28:06;0.00;;;0.00;;
19927;SDS011;10126;50.876;4.470;2022-07-29T09:30:08;0.00;;;0.00;;
19927;SDS011;10126;50.876;4.470;2022-07-29T09:32:10;0.00;;;0.00;;
19927;SDS011;10126;50.876;4.470;2022-07-29T09:34:11;0.00;;;0.00;;
19927;SDS011;10126;50.876;4.470;2022-07-29T09:36:14;0.00;;;0.00;;
19927;SDS011;10126;50.876;4.470;2022-07-29T09:38:14;0.00;;;0.00;;
19927;SDS011;10126;50.876;4.470;2022-07-29T09:40:19;0.00;;;0.00;;
19927;SDS011;10126;50.876;4.470;2022-07-29T09:42:28;0.00;;;0.00;;
19927;SDS011;10126;50.876;4.470;2022-07-29T09:44:45;0.00;;;0.00;;
19927;SDS011;10126;50.876;4.470;2022-07-29T09:46:54;0.00;;;0.00;;
19927;SDS011;10126;50.876;4.470;2022-07-29T09:49:08;0.00;;;0.00;;
19927;SDS011;10126;50.876;4.470;2022-07-29T09:51:17;0.00;;;0.00;;
19927;SDS011;10126;50.876;4.470;2022-07-29T09:55:32;0.00;;;0.00;;
19927;SDS011;10126;50.876;4.470;2022-07-29T09:57:52;0.00;;;0.00;;
19927;SDS011;10126;50.876;4.470;2022-07-29T10:02:13;0.00;;;0.00;;
19927;SDS011;10126;50.876;4.470;2022-07-29T10:04:14;0.00;;;0.00;;
19927;SDS011;10126;50.876;4.470;2022-07-29T10:06:15;0.00;;;0.00;;
19927;SDS011;10126;50.876;4.470;2022-07-29T10:08:19;0.00;;;0.00;;
19927;SDS011;10126;50.876;4.470;2022-07-29T10:10:27;0.17;;;0.00;;
19927;SDS011;10126;50.876;4.470;2022-07-29T10:12:31;0.00;;;0.00;;
19927;SDS011;10126;50.876;4.470;2022-07-29T10:14:32;0.10;;;0.10;;
19927;SDS011;10126;50.876;4.470;2022-07-29T10:16:33;0.08;;;0.08;;
19927;SDS011;10126;50.876;4.470;2022-07-29T10:18:34;0.00;;;0.00;;
19927;SDS011;10126;50.876;4.470;2022-07-29T10:20:35;0.10;;;0.00;;
19927;SDS011;10126;50.876;4.470;2022-07-29T10:22:36;0.00;;;0.00;;
19927;SDS011;10126;50.876;4.470;2022-07-29T10:24:38;0.00;;;0.00;;
19927;SDS011;10126;50.876;4.470;2022-07-29T10:26:39;0.00;;;0.00;;
19927;SDS011;10126;50.876;4.470;2022-07-29T10:28:40;0.00;;;0.00;;
19927;SDS011;10126;50.876;4.470;2022-07-29T10:30:41;0.00;;;0.00;;
19927;SDS011;10126;50.876;4.470;2022-07-29T10:37:07;0.05;;;0.05;;
19927;SDS011;10126;50.876;4.470;2022-07-29T10:42:00;0.00;;;0.00;;
19927;SDS011;10126;50.876;4.470;2022-07-29T10:44:12;0.00;;;0.00;;
19927;SDS011;10126;50.876;4.470;2022-07-29T10:46:16;0.00;;;0.00;;
19927;SDS011;10126;50.876;4.470;2022-07-29T10:48:18;0.00;;;0.00;;
19927;SDS011;10126;50.876;4.470;2022-07-29T10:50:18;0.10;;;0.10;;
19927;SDS011;10126;50.876;4.470;2022-07-29T10:52:19;0.08;;;0.08;;
19927;SDS011;10126;50.876;4.470;2022-07-29T10:56:38;0.10;;;0.10;;
19927;SDS011;10126;50.876;4.470;2022-07-29T10:58:40;0.00;;;0.00;;
19927;SDS011;10126;50.876;4.470;2022-07-29T11:00:41;0.00;;;0.00;;
19927;SDS011;10126;50.876;4.470;2022-07-29T11:02:42;0.00;;;0.00;;
19927;SDS011;10126;50.876;4.470;2022-07-29T11:11:30;0.00;;;0.00;;
19927;SDS011;10126;50.876;4.470;2022-07-29T11:15:52;0.00;;;0.00;;
19927;SDS011;10126;50.876;4.470;2022-07-29T11:22:36;0.10;;;0.10;;
19927;SDS011;10126;50.876;4.470;2022-07-29T11:24:37;0.00;;;0.00;;
19927;SDS011;10126;50.876;4.470;2022-07-29T11:26:38;0.00;;;0.00;;
19927;SDS011;10126;50.876;4.470;2022-07-29T11:28:56;0.10;;;0.10;;
19927;SDS011;10126;50.876;4.470;2022-07-29T11:31:03;0.08;;;0.08;;
19927;SDS011;10126;50.876;4.470;2022-07-29T11:33:04;0.00;;;0.00;;
19927;SDS011;10126;50.876;4.470;2022-07-29T11:37:22;0.03;;;0.03;;
19927;SDS011;10126;50.876;4.470;2022-07-29T11:39:27;0.10;;;0.10;;
19927;SDS011;10126;50.876;4.470;2022-07-29T11:41:27;0.00;;;0.00;;
19927;SDS011;10126;50.876;4.470;2022-07-29T11:45:51;0.00;;;0.00;;
19927;SDS011;10126;50.876;4.470;2022-07-29T11:47:52;0.00;;;0.00;;
19927;SDS011;10126;50.876;4.470;2022-07-29T11:49:55;0.00;;;0.00;;
19927;SDS011;10126;50.876;4.470;2022-07-29T11:51:57;0.00;;;0.00;;
19927;SDS011;10126;50.876;4.470;2022-07-29T11:54:01;0.00;;;0.00;;
19927;SDS011;10126;50.876;4.470;2022-07-29T11:56:02;0.10;;;0.10;;
19927;SDS011;10126;50.876;4.470;2022-07-29T11:58:04;0.00;;;0.00;;
19927;SDS011;10126;50.876;4.470;2022-07-29T12:00:05;0.00;;;0.00;;
19927;SDS011;10126;50.876;4.470;2022-07-29T12:02:11;0.00;;;0.00;;
19927;SDS011;10126;50.876;4.470;2022-07-29T12:04:12;0.00;;;0.00;;
19927;SDS011;10126;50.876;4.470;2022-07-29T12:06:13;0.00;;;0.00;;
19927;SDS011;10126;50.876;4.470;2022-07-29T12:08:15;0.00;;;0.00;;
19927;SDS011;10126;50.876;4.470;2022-07-29T12:10:29;0.00;;;0.00;;
19927;SDS011;10126;50.876;4.470;2022-07-29T12:12:31;0.00;;;0.00;;
19927;SDS011;10126;50.876;4.470;2022-07-29T12:14:32;0.00;;;0.00;;
19927;SDS011;10126;50.876;4.470;2022-07-29T12:16:36;0.00;;;0.00;;
19927;SDS011;10126;50.876;4.470;2022-07-29T12:18:37;0.00;;;0.00;;
19927;SDS011;10126;50.876;4.470;2022-07-29T12:20:37;0.10;;;0.10;;
19927;SDS011;10126;50.876;4.470;2022-07-29T12:22:39;0.00;;;0.00;;
19927;SDS011;10126;50.876;4.470;2022-07-29T12:24:44;0.00;;;0.00;;
19927;SDS011;10126;50.876;4.470;2022-07-29T12:26:51;0.00;;;0.00;;
19927;SDS011;10126;50.876;4.470;2022-07-29T12:28:59;0.00;;;0.00;;
19927;SDS011;10126;50.876;4.470;2022-07-29T12:31:00;0.00;;;0.00;;
19927;SDS011;10126;50.876;4.470;2022-07-29T12:33:01;0.00;;;0.00;;
19927;SDS011;10126;50.876;4.470;2022-07-29T12:35:05;0.00;;;0.00;;
19927;SDS011;10126;50.876;4.470;2022-07-29T12:37:08;0.00;;;0.00;;
19927;SDS011;10126;50.876;4.470;2022-07-29T12:39:10;0.00;;;0.00;;
19927;SDS011;10126;50.876;4.470;2022-07-29T12:41:11;0.00;;;0.00;;
19927;SDS011;10126;50.876;4.470;2022-07-29T12:43:16;0.00;;;0.00;;
19927;SDS011;10126;50.876;4.470;2022-07-29T12:45:27;0.00;;;0.00;;
19927;SDS011;10126;50.876;4.470;2022-07-29T12:47:29;0.00;;;0.00;;
19927;SDS011;10126;50.876;4.470;2022-07-29T12:49:30;0.00;;;0.00;;
19927;SDS011;10126;50.876;4.470;2022-07-29T12:51:37;0.00;;;0.00;;
19927;SDS011;10126;50.876;4.470;2022-07-29T12:53:40;0.00;;;0.00;;
19927;SDS011;10126;50.876;4.470;2022-07-29T12:55:44;0.00;;;0.00;;
19927;SDS011;10126;50.876;4.470;2022-07-29T12:57:51;0.00;;;0.00;;
19927;SDS011;10126;50.876;4.470;2022-07-29T13:02:00;0.00;;;0.00;;
19927;SDS011;10126;50.876;4.470;2022-07-29T13:04:00;0.00;;;0.00;;
19927;SDS011;10126;50.876;4.470;2022-07-29T13:06:02;0.03;;;0.03;;
19927;SDS011;10126;50.876;4.470;2022-07-29T13:08:15;0.00;;;0.00;;
19927;SDS011;10126;50.876;4.470;2022-07-29T13:10:19;0.00;;;0.00;;
19927;SDS011;10126;50.876;4.470;2022-07-29T13:12:20;0.10;;;0.10;;